IGO134 VCBI-VABB
Flight info
| Callsign | IGO134 |
|---|---|
| Flight time | 2h 6m |
| Altitude | 36000 |
| Route | ATET1D ATETA T4 TTR W42 BIA W56 AGELA MOLG2A |
| Aircraft | A320/M-SC/2000 |
Departure
| Time | 2026-04-22 12:30 |
|---|---|
| Airport | Bandaranaike International Colombo Airport (VCBI) |
Arrival
| Time | 2026-04-22 14:36 |
|---|---|
| Airport | Chhatrapati Shivaji Maharaj International Airport (VABB) |
| Time | Latitude | Longitude | Altitude | Speed | Heading |
|---|---|---|---|---|---|
| 2026-04-22 12:03 | 7.17586 | 79.88472 | 38 ft | 0 kts | 37° |
| 2026-04-22 12:12 | 7.17585 | 79.88472 | 38 ft | 0 kts | 37° |
| 2026-04-22 12:18 | 7.17576 | 79.88465 | 38 ft | 3 kts | 34° |
| 2026-04-22 12:18 | 7.17559 | 79.88454 | 35 ft | 3 kts | 28° |
| 2026-04-22 12:19 | 7.17540 | 79.88445 | 36 ft | 3 kts | 20° |
| 2026-04-22 12:19 | 7.17521 | 79.88439 | 37 ft | 3 kts | 6° |
| 2026-04-22 12:19 | 7.17502 | 79.88439 | 36 ft | 3 kts | 336° |
| 2026-04-22 12:19 | 7.17491 | 79.88445 | 38 ft | 0 kts | 307° |
| 2026-04-22 12:23 | 7.17497 | 79.88438 | 37 ft | 3 kts | 307° |
| 2026-04-22 12:24 | 7.17517 | 79.88411 | 38 ft | 8 kts | 307° |
| 2026-04-22 12:24 | 7.17551 | 79.88366 | 38 ft | 8 kts | 307° |
| 2026-04-22 12:24 | 7.17589 | 79.88316 | 38 ft | 10 kts | 307° |
| 2026-04-22 12:24 | 7.17643 | 79.88262 | 39 ft | 12 kts | 342° |
| 2026-04-22 12:25 | 7.17721 | 79.88299 | 38 ft | 14 kts | 39° |
| 2026-04-22 12:25 | 7.17804 | 79.88364 | 39 ft | 16 kts | 37° |
| 2026-04-22 12:25 | 7.17900 | 79.88438 | 39 ft | 18 kts | 37° |
| 2026-04-22 12:25 | 7.18008 | 79.88520 | 38 ft | 21 kts | 38° |
| 2026-04-22 12:26 | 7.18086 | 79.88581 | 38 ft | 22 kts | 37° |
| 2026-04-22 12:26 | 7.18264 | 79.88717 | 38 ft | 25 kts | 38° |
| 2026-04-22 12:26 | 7.18409 | 79.88829 | 39 ft | 28 kts | 37° |
| 2026-04-22 12:26 | 7.18570 | 79.88951 | 39 ft | 30 kts | 38° |
| 2026-04-22 12:27 | 7.18737 | 79.89081 | 39 ft | 32 kts | 37° |
| 2026-04-22 12:27 | 7.18918 | 79.89221 | 38 ft | 34 kts | 37° |
| 2026-04-22 12:27 | 7.19088 | 79.89352 | 38 ft | 22 kts | 37° |
| 2026-04-22 12:27 | 7.19188 | 79.89422 | 38 ft | 15 kts | 17° |
| 2026-04-22 12:28 | 7.19249 | 79.89376 | 38 ft | 12 kts | 307° |
| 2026-04-22 12:28 | 7.19298 | 79.89308 | 38 ft | 9 kts | 299° |
| 2026-04-22 12:28 | 7.19264 | 79.89260 | 38 ft | 10 kts | 217° |
| 2026-04-22 12:28 | 7.19250 | 79.89249 | 38 ft | 0 kts | 218° |
| 2026-04-22 12:29 | 7.19222 | 79.89228 | 39 ft | 23 kts | 218° |
| 2026-04-22 12:29 | 7.18891 | 79.88972 | 40 ft | 94 kts | 217° |
| 2026-04-22 12:29 | 7.18224 | 79.88459 | 36 ft | 145 kts | 217° |
| 2026-04-22 12:30 | 7.16396 | 79.87023 | 883 ft | 167 kts | 229° |
| 2026-04-22 12:30 | 7.16037 | 79.86343 | 1287 ft | 172 kts | 258° |
| 2026-04-22 12:30 | 7.16364 | 79.84647 | 1688 ft | 202 kts | 286° |
| 2026-04-22 12:31 | 7.16751 | 79.83201 | 1966 ft | 227 kts | 282° |
| 2026-04-22 12:31 | 7.16994 | 79.82138 | 2285 ft | 241 kts | 281° |
| 2026-04-22 12:31 | 7.17404 | 79.80472 | 3015 ft | 251 kts | 292° |
| 2026-04-22 12:31 | 7.18518 | 79.79118 | 3757 ft | 258 kts | 328° |
| 2026-04-22 12:32 | 7.20889 | 79.78683 | 4645 ft | 272 kts | 14° |
| 2026-04-22 12:32 | 7.23469 | 79.80439 | 6056 ft | 274 kts | 47° |
| 2026-04-22 12:32 | 7.24746 | 79.81862 | 6955 ft | 274 kts | 48° |
| 2026-04-22 12:33 | 7.26050 | 79.83285 | 7721 ft | 279 kts | 46° |
| 2026-04-22 12:33 | 7.27447 | 79.84660 | 8502 ft | 283 kts | 43° |
| 2026-04-22 12:33 | 7.28927 | 79.85986 | 9287 ft | 287 kts | 40° |
| 2026-04-22 12:33 | 7.30472 | 79.87276 | 10026 ft | 290 kts | 38° |
| 2026-04-22 12:34 | 7.32080 | 79.88560 | 10379 ft | 310 kts | 37° |
| 2026-04-22 12:34 | 7.33893 | 79.89917 | 10646 ft | 328 kts | 31° |
| 2026-04-22 12:34 | 7.35970 | 79.90899 | 11180 ft | 334 kts | 18° |
| 2026-04-22 12:34 | 7.38224 | 79.91382 | 11809 ft | 338 kts | 5° |
| 2026-04-22 12:35 | 7.40617 | 79.91469 | 12471 ft | 341 kts | 1° |
| 2026-04-22 12:35 | 7.42961 | 79.91530 | 13106 ft | 344 kts | 1° |
| 2026-04-22 12:35 | 7.45371 | 79.91593 | 13726 ft | 347 kts | 1° |
| 2026-04-22 12:35 | 7.47793 | 79.91657 | 14275 ft | 351 kts | 1° |
| 2026-04-22 12:36 | 7.50246 | 79.91722 | 14822 ft | 354 kts | 1° |
| 2026-04-22 12:36 | 7.52716 | 79.91786 | 15373 ft | 357 kts | 1° |
| 2026-04-22 12:36 | 7.55212 | 79.91849 | 15918 ft | 360 kts | 1° |
| 2026-04-22 12:36 | 7.57724 | 79.91914 | 16450 ft | 363 kts | 1° |
| 2026-04-22 12:37 | 7.60255 | 79.91981 | 17005 ft | 366 kts | 1° |
| 2026-04-22 12:37 | 7.62813 | 79.92049 | 17530 ft | 369 kts | 1° |
| 2026-04-22 12:37 | 7.65393 | 79.92120 | 18065 ft | 372 kts | 1° |
| 2026-04-22 12:37 | 7.67998 | 79.92194 | 18515 ft | 375 kts | 1° |
| 2026-04-22 12:38 | 7.70622 | 79.92268 | 18947 ft | 379 kts | 1° |
| 2026-04-22 12:38 | 7.73273 | 79.92344 | 19378 ft | 383 kts | 1° |
| 2026-04-22 12:38 | 7.75952 | 79.92420 | 19803 ft | 387 kts | 1° |
| 2026-04-22 12:38 | 7.78659 | 79.92494 | 20237 ft | 391 kts | 1° |
| 2026-04-22 12:39 | 7.81386 | 79.92567 | 20668 ft | 394 kts | 1° |
| 2026-04-22 12:39 | 7.86922 | 79.92549 | 21492 ft | 402 kts | 352° |
| 2026-04-22 12:39 | 7.89681 | 79.92048 | 21884 ft | 406 kts | 349° |
| 2026-04-22 12:40 | 7.92466 | 79.91501 | 22286 ft | 409 kts | 349° |
| 2026-04-22 12:40 | 7.95276 | 79.90955 | 22693 ft | 413 kts | 349° |
| 2026-04-22 12:40 | 7.98115 | 79.90410 | 23093 ft | 417 kts | 349° |
| 2026-04-22 12:40 | 8.00938 | 79.89868 | 23473 ft | 420 kts | 349° |
| 2026-04-22 12:41 | 8.03857 | 79.89309 | 23831 ft | 423 kts | 349° |
| 2026-04-22 12:41 | 8.06714 | 79.88762 | 24178 ft | 425 kts | 349° |
| 2026-04-22 12:41 | 8.09627 | 79.88200 | 24540 ft | 427 kts | 348° |
| 2026-04-22 12:41 | 8.12552 | 79.87635 | 24897 ft | 430 kts | 348° |
| 2026-04-22 12:42 | 8.15502 | 79.87066 | 25250 ft | 432 kts | 348° |
| 2026-04-22 12:42 | 8.18463 | 79.86494 | 25600 ft | 435 kts | 348° |
| 2026-04-22 12:42 | 8.21442 | 79.85921 | 25949 ft | 437 kts | 348° |
| 2026-04-22 12:42 | 8.24446 | 79.85348 | 26291 ft | 440 kts | 348° |
| 2026-04-22 12:43 | 8.27463 | 79.84776 | 26614 ft | 443 kts | 348° |
| 2026-04-22 12:43 | 8.30504 | 79.84200 | 26940 ft | 445 kts | 348° |
| 2026-04-22 12:43 | 8.33557 | 79.83621 | 27264 ft | 448 kts | 348° |
| 2026-04-22 12:43 | 8.36629 | 79.83036 | 27583 ft | 451 kts | 348° |
| 2026-04-22 12:44 | 8.39719 | 79.82444 | 27895 ft | 453 kts | 348° |
| 2026-04-22 12:44 | 8.42829 | 79.81849 | 28217 ft | 456 kts | 348° |
| 2026-04-22 12:44 | 8.45955 | 79.81255 | 28547 ft | 459 kts | 348° |
| 2026-04-22 12:44 | 8.49100 | 79.80657 | 28879 ft | 462 kts | 348° |
| 2026-04-22 12:45 | 8.52268 | 79.80055 | 29218 ft | 464 kts | 348° |
| 2026-04-22 12:45 | 8.55450 | 79.79450 | 29556 ft | 467 kts | 347° |
| 2026-04-22 12:45 | 8.58612 | 79.78845 | 29877 ft | 470 kts | 347° |
| 2026-04-22 12:45 | 8.61832 | 79.78228 | 30153 ft | 473 kts | 347° |
| 2026-04-22 12:46 | 8.65075 | 79.77608 | 30415 ft | 476 kts | 347° |
| 2026-04-22 12:46 | 8.68336 | 79.76984 | 30675 ft | 479 kts | 347° |
| 2026-04-22 12:46 | 8.71622 | 79.76358 | 30925 ft | 482 kts | 347° |
| 2026-04-22 12:46 | 8.74921 | 79.75732 | 31255 ft | 482 kts | 347° |
| 2026-04-22 12:47 | 8.78215 | 79.75103 | 31629 ft | 482 kts | 348° |
| 2026-04-22 12:47 | 8.81512 | 79.74472 | 31987 ft | 483 kts | 348° |
| 2026-04-22 12:47 | 8.83364 | 79.74117 | 32190 ft | 483 kts | 348° |
| 2026-04-22 12:47 | 8.85727 | 79.73665 | 32450 ft | 484 kts | 348° |
| 2026-04-22 12:48 | 8.89040 | 79.73037 | 32803 ft | 485 kts | 348° |
| 2026-04-22 12:48 | 8.92361 | 79.72410 | 33157 ft | 486 kts | 348° |
| 2026-04-22 12:48 | 8.95688 | 79.71779 | 33523 ft | 487 kts | 348° |
| 2026-04-22 12:48 | 8.99016 | 79.71146 | 33864 ft | 487 kts | 348° |
| 2026-04-22 12:49 | 9.02352 | 79.70505 | 34171 ft | 488 kts | 348° |
| 2026-04-22 12:49 | 9.05686 | 79.69861 | 34501 ft | 488 kts | 348° |
| 2026-04-22 12:49 | 9.09015 | 79.69218 | 34833 ft | 487 kts | 348° |
| 2026-04-22 12:49 | 9.12345 | 79.68578 | 35159 ft | 487 kts | 348° |
| 2026-04-22 12:50 | 9.15670 | 79.67942 | 35486 ft | 486 kts | 348° |
| 2026-04-22 12:50 | 9.18998 | 79.67311 | 35737 ft | 487 kts | 348° |
| 2026-04-22 12:50 | 9.22285 | 79.66687 | 35802 ft | 485 kts | 348° |
| 2026-04-22 12:51 | 9.28945 | 79.65384 | 35805 ft | 483 kts | 344° |
| 2026-04-22 12:51 | 9.35050 | 79.62818 | 35804 ft | 477 kts | 325° |
| 2026-04-22 12:52 | 9.40667 | 79.59249 | 35804 ft | 477 kts | 324° |
| 2026-04-22 12:52 | 9.46302 | 79.55679 | 35803 ft | 477 kts | 325° |
| 2026-04-22 12:53 | 9.51942 | 79.52113 | 35804 ft | 477 kts | 325° |
| 2026-04-22 12:53 | 9.57576 | 79.48549 | 35802 ft | 478 kts | 324° |
| 2026-04-22 12:54 | 9.63205 | 79.44967 | 35804 ft | 478 kts | 324° |
| 2026-04-22 12:54 | 9.68840 | 79.41385 | 35804 ft | 478 kts | 324° |
| 2026-04-22 12:55 | 9.74482 | 79.37804 | 35805 ft | 478 kts | 324° |
| 2026-04-22 12:55 | 9.80085 | 79.34244 | 35809 ft | 478 kts | 324° |
| 2026-04-22 12:56 | 9.85726 | 79.30650 | 35810 ft | 478 kts | 324° |
| 2026-04-22 12:56 | 9.91365 | 79.27058 | 35812 ft | 479 kts | 324° |
| 2026-04-22 12:57 | 9.97008 | 79.23469 | 35815 ft | 479 kts | 324° |
| 2026-04-22 12:57 | 10.02650 | 79.19878 | 35817 ft | 479 kts | 324° |
| 2026-04-22 12:58 | 10.08294 | 79.16281 | 35812 ft | 478 kts | 324° |
| 2026-04-22 12:58 | 10.13923 | 79.12689 | 35812 ft | 478 kts | 324° |
| 2026-04-22 12:59 | 10.19522 | 79.09123 | 35810 ft | 478 kts | 324° |
| 2026-04-22 12:59 | 10.25154 | 79.05539 | 35807 ft | 478 kts | 324° |
| 2026-04-22 13:00 | 10.30782 | 79.01952 | 35803 ft | 477 kts | 324° |
| 2026-04-22 13:00 | 10.36401 | 78.98356 | 35805 ft | 477 kts | 324° |
| 2026-04-22 13:01 | 10.42028 | 78.94758 | 35796 ft | 477 kts | 324° |
| 2026-04-22 13:01 | 10.47650 | 78.91168 | 35794 ft | 477 kts | 324° |
| 2026-04-22 13:02 | 10.53276 | 78.87576 | 35801 ft | 477 kts | 324° |
| 2026-04-22 13:02 | 10.58899 | 78.83982 | 35798 ft | 478 kts | 324° |
| 2026-04-22 13:03 | 10.64523 | 78.80382 | 35801 ft | 478 kts | 324° |
| 2026-04-22 13:03 | 10.70116 | 78.76805 | 35800 ft | 477 kts | 324° |
| 2026-04-22 13:04 | 10.75741 | 78.73219 | 35797 ft | 478 kts | 326° |
| 2026-04-22 13:04 | 10.81881 | 78.70413 | 35794 ft | 482 kts | 335° |
| 2026-04-22 13:05 | 10.88076 | 78.67885 | 35796 ft | 483 kts | 335° |
| 2026-04-22 13:05 | 10.94300 | 78.65335 | 35798 ft | 483 kts | 335° |
| 2026-04-22 13:06 | 11.00530 | 78.62770 | 35799 ft | 482 kts | 335° |
| 2026-04-22 13:06 | 11.06758 | 78.60210 | 35806 ft | 482 kts | 335° |
| 2026-04-22 13:07 | 11.12983 | 78.57650 | 35809 ft | 482 kts | 335° |
| 2026-04-22 13:07 | 11.19208 | 78.55094 | 35814 ft | 482 kts | 335° |
| 2026-04-22 13:08 | 11.25375 | 78.52555 | 35818 ft | 482 kts | 335° |
| 2026-04-22 13:08 | 11.31593 | 78.49996 | 35821 ft | 481 kts | 335° |
| 2026-04-22 13:09 | 11.37804 | 78.47443 | 35826 ft | 481 kts | 334° |
| 2026-04-22 13:09 | 11.44013 | 78.44885 | 35827 ft | 481 kts | 334° |
| 2026-04-22 13:10 | 11.50221 | 78.42332 | 35828 ft | 481 kts | 335° |
| 2026-04-22 13:10 | 11.56422 | 78.39772 | 35834 ft | 481 kts | 334° |
| 2026-04-22 13:11 | 11.62623 | 78.37207 | 35839 ft | 481 kts | 334° |
| 2026-04-22 13:11 | 11.68834 | 78.34637 | 35838 ft | 481 kts | 334° |
| 2026-04-22 13:12 | 11.75040 | 78.32077 | 35832 ft | 481 kts | 334° |
| 2026-04-22 13:12 | 11.81242 | 78.29519 | 35831 ft | 480 kts | 334° |
| 2026-04-22 13:13 | 11.87393 | 78.26963 | 35833 ft | 480 kts | 334° |
| 2026-04-22 13:13 | 11.93559 | 78.24329 | 35839 ft | 479 kts | 333° |
| 2026-04-22 13:14 | 11.99689 | 78.21675 | 35834 ft | 479 kts | 333° |
| 2026-04-22 13:14 | 12.05834 | 78.19033 | 35841 ft | 479 kts | 333° |
| 2026-04-22 13:15 | 12.11984 | 78.16405 | 35849 ft | 479 kts | 333° |
| 2026-04-22 13:15 | 12.18137 | 78.13767 | 35860 ft | 479 kts | 333° |
| 2026-04-22 13:16 | 12.24282 | 78.11127 | 35867 ft | 479 kts | 333° |
| 2026-04-22 13:16 | 12.30435 | 78.08483 | 35875 ft | 479 kts | 333° |
| 2026-04-22 13:17 | 12.36541 | 78.05856 | 35887 ft | 480 kts | 333° |
| 2026-04-22 13:17 | 12.42694 | 78.03209 | 35905 ft | 480 kts | 333° |
| 2026-04-22 13:18 | 12.48852 | 78.00560 | 35914 ft | 480 kts | 333° |
| 2026-04-22 13:18 | 12.55017 | 77.97909 | 35917 ft | 480 kts | 333° |
| 2026-04-22 13:19 | 12.61178 | 77.95258 | 35934 ft | 480 kts | 333° |
| 2026-04-22 13:19 | 12.67348 | 77.92607 | 35946 ft | 481 kts | 333° |
| 2026-04-22 13:20 | 12.73508 | 77.89950 | 35961 ft | 481 kts | 333° |
| 2026-04-22 13:20 | 12.78632 | 77.87737 | 35976 ft | 481 kts | 332° |
| 2026-04-22 13:21 | 12.85839 | 77.84632 | 35989 ft | 481 kts | 333° |
| 2026-04-22 13:21 | 12.90964 | 77.82420 | 35989 ft | 481 kts | 332° |
| 2026-04-22 13:22 | 12.97123 | 77.79758 | 35991 ft | 481 kts | 332° |
| 2026-04-22 13:22 | 13.03293 | 77.77094 | 35992 ft | 481 kts | 332° |
| 2026-04-22 13:23 | 13.09461 | 77.74426 | 35965 ft | 481 kts | 332° |
| 2026-04-22 13:23 | 13.15634 | 77.71761 | 35963 ft | 481 kts | 332° |
| 2026-04-22 13:24 | 13.21810 | 77.69089 | 35963 ft | 481 kts | 332° |
| 2026-04-22 13:24 | 13.27981 | 77.66411 | 35963 ft | 482 kts | 332° |
| 2026-04-22 13:25 | 13.34112 | 77.63745 | 35965 ft | 482 kts | 332° |
| 2026-04-22 13:25 | 13.40285 | 77.61060 | 35963 ft | 482 kts | 332° |
| 2026-04-22 13:26 | 13.46462 | 77.58373 | 35957 ft | 482 kts | 332° |
| 2026-04-22 13:26 | 13.52641 | 77.55695 | 35944 ft | 482 kts | 332° |
| 2026-04-22 13:27 | 13.58815 | 77.53015 | 35934 ft | 481 kts | 332° |
| 2026-04-22 13:27 | 13.64981 | 77.50334 | 35930 ft | 481 kts | 332° |
| 2026-04-22 13:28 | 13.71109 | 77.47663 | 35919 ft | 481 kts | 332° |
| 2026-04-22 13:28 | 13.77272 | 77.44968 | 35914 ft | 481 kts | 331° |
| 2026-04-22 13:29 | 13.83430 | 77.42275 | 35906 ft | 481 kts | 332° |
| 2026-04-22 13:29 | 13.89596 | 77.39588 | 35899 ft | 481 kts | 332° |
| 2026-04-22 13:30 | 13.95760 | 77.36902 | 35895 ft | 481 kts | 331° |
| 2026-04-22 13:30 | 14.01927 | 77.34207 | 35890 ft | 481 kts | 331° |
| 2026-04-22 13:31 | 14.08091 | 77.31509 | 35888 ft | 481 kts | 331° |
| 2026-04-22 13:31 | 14.14255 | 77.28814 | 35885 ft | 481 kts | 331° |
| 2026-04-22 13:32 | 14.20385 | 77.26133 | 35882 ft | 481 kts | 331° |
| 2026-04-22 13:32 | 14.26550 | 77.23436 | 35878 ft | 481 kts | 331° |
| 2026-04-22 13:33 | 14.32704 | 77.20734 | 35880 ft | 481 kts | 331° |
| 2026-04-22 13:33 | 14.38876 | 77.18032 | 35878 ft | 481 kts | 331° |
| 2026-04-22 13:34 | 14.45036 | 77.15328 | 35878 ft | 482 kts | 331° |
| 2026-04-22 13:34 | 14.51203 | 77.12622 | 35880 ft | 482 kts | 331° |
| 2026-04-22 13:35 | 14.57377 | 77.09915 | 35873 ft | 482 kts | 331° |
| 2026-04-22 13:35 | 14.63607 | 77.07318 | 35872 ft | 484 kts | 334° |
| 2026-04-22 13:36 | 14.69983 | 77.05022 | 35877 ft | 486 kts | 336° |
| 2026-04-22 13:36 | 14.76351 | 77.02803 | 35877 ft | 486 kts | 335° |
| 2026-04-22 13:37 | 14.82730 | 77.00501 | 35877 ft | 485 kts | 334° |
| 2026-04-22 13:37 | 14.89091 | 76.98144 | 35876 ft | 485 kts | 334° |
| 2026-04-22 13:38 | 14.95450 | 76.95787 | 35875 ft | 486 kts | 334° |
| 2026-04-22 13:38 | 15.05006 | 76.92260 | 35878 ft | 486 kts | 334° |
| 2026-04-22 13:39 | 15.11388 | 76.89909 | 35874 ft | 486 kts | 334° |
| 2026-04-22 13:39 | 15.17340 | 76.86848 | 35874 ft | 470 kts | 317° |
| 2026-04-22 13:40 | 15.22117 | 76.82449 | 35865 ft | 460 kts | 308° |
| 2026-04-22 13:40 | 15.26724 | 76.77840 | 35861 ft | 461 kts | 308° |
| 2026-04-22 13:41 | 15.31345 | 76.73230 | 35863 ft | 461 kts | 308° |
| 2026-04-22 13:41 | 15.35972 | 76.68616 | 35867 ft | 462 kts | 308° |
| 2026-04-22 13:42 | 15.40594 | 76.63996 | 35852 ft | 462 kts | 308° |
| 2026-04-22 13:42 | 15.45212 | 76.59373 | 35855 ft | 461 kts | 308° |
| 2026-04-22 13:43 | 15.49830 | 76.54753 | 35858 ft | 462 kts | 307° |
| 2026-04-22 13:43 | 15.54454 | 76.50125 | 35856 ft | 462 kts | 307° |
| 2026-04-22 13:44 | 15.59078 | 76.45486 | 35866 ft | 462 kts | 307° |
| 2026-04-22 13:44 | 15.63665 | 76.40882 | 35860 ft | 462 kts | 307° |
| 2026-04-22 13:45 | 15.68289 | 76.36246 | 35866 ft | 463 kts | 308° |
| 2026-04-22 13:45 | 15.73007 | 76.31677 | 35867 ft | 464 kts | 309° |
| 2026-04-22 13:46 | 15.77766 | 76.27138 | 35874 ft | 464 kts | 308° |
| 2026-04-22 13:46 | 15.82504 | 76.22591 | 35880 ft | 464 kts | 308° |
| 2026-04-22 13:47 | 15.87193 | 76.18050 | 35881 ft | 464 kts | 308° |
| 2026-04-22 13:47 | 15.91914 | 76.13473 | 35884 ft | 464 kts | 308° |
| 2026-04-22 13:48 | 15.96634 | 76.08903 | 35882 ft | 464 kts | 308° |
| 2026-04-22 13:48 | 16.01363 | 76.04328 | 35882 ft | 464 kts | 308° |
| 2026-04-22 13:49 | 16.06071 | 75.99756 | 35880 ft | 463 kts | 308° |
| 2026-04-22 13:49 | 16.10786 | 75.95174 | 35877 ft | 463 kts | 308° |
| 2026-04-22 13:50 | 16.15496 | 75.90602 | 35879 ft | 463 kts | 308° |
| 2026-04-22 13:50 | 16.20211 | 75.86021 | 35879 ft | 463 kts | 308° |
| 2026-04-22 13:51 | 16.24926 | 75.81445 | 35878 ft | 463 kts | 308° |
| 2026-04-22 13:51 | 16.29636 | 75.76863 | 35876 ft | 463 kts | 308° |
| 2026-04-22 13:52 | 16.34311 | 75.72309 | 35881 ft | 463 kts | 308° |
| 2026-04-22 13:52 | 16.39013 | 75.67727 | 35884 ft | 463 kts | 308° |
| 2026-04-22 13:53 | 16.43723 | 75.63135 | 35884 ft | 463 kts | 307° |
| 2026-04-22 13:53 | 16.48424 | 75.58548 | 35882 ft | 463 kts | 307° |
| 2026-04-22 13:54 | 16.53123 | 75.53964 | 35884 ft | 463 kts | 307° |
| 2026-04-22 13:54 | 16.57822 | 75.49375 | 35884 ft | 463 kts | 307° |
| 2026-04-22 13:55 | 16.62209 | 75.44566 | 35887 ft | 450 kts | 298° |
| 2026-04-22 13:55 | 16.66081 | 75.39422 | 35887 ft | 451 kts | 298° |
| 2026-04-22 13:56 | 16.69975 | 75.34287 | 35890 ft | 451 kts | 298° |
| 2026-04-22 13:56 | 16.73867 | 75.29153 | 35888 ft | 451 kts | 298° |
| 2026-04-22 13:57 | 16.77759 | 75.24017 | 35888 ft | 451 kts | 298° |
| 2026-04-22 13:57 | 16.81640 | 75.18882 | 35888 ft | 451 kts | 298° |
| 2026-04-22 13:58 | 16.85521 | 75.13732 | 35888 ft | 451 kts | 298° |
| 2026-04-22 13:58 | 16.89378 | 75.08613 | 35887 ft | 451 kts | 298° |
| 2026-04-22 13:59 | 16.93261 | 75.03464 | 35891 ft | 451 kts | 298° |
| 2026-04-22 13:59 | 16.97143 | 74.98315 | 35890 ft | 451 kts | 298° |
| 2026-04-22 14:00 | 17.01031 | 74.93150 | 35866 ft | 457 kts | 298° |
| 2026-04-22 14:00 | 17.03013 | 74.90504 | 35175 ft | 465 kts | 298° |
| 2026-04-22 14:00 | 17.05011 | 74.87842 | 34553 ft | 466 kts | 298° |
| 2026-04-22 14:01 | 17.07013 | 74.85184 | 34067 ft | 464 kts | 298° |
| 2026-04-22 14:01 | 17.09008 | 74.82541 | 33577 ft | 461 kts | 298° |
| 2026-04-22 14:01 | 17.10984 | 74.79922 | 33094 ft | 457 kts | 299° |
| 2026-04-22 14:01 | 17.12938 | 74.77324 | 32632 ft | 452 kts | 300° |
| 2026-04-22 14:02 | 17.14871 | 74.74748 | 32185 ft | 448 kts | 300° |
| 2026-04-22 14:02 | 17.16783 | 74.72200 | 31739 ft | 444 kts | 301° |
| 2026-04-22 14:02 | 17.18679 | 74.69672 | 31308 ft | 439 kts | 301° |
| 2026-04-22 14:02 | 17.20553 | 74.67166 | 30864 ft | 435 kts | 301° |
| 2026-04-22 14:03 | 17.22410 | 74.64683 | 30428 ft | 431 kts | 302° |
| 2026-04-22 14:03 | 17.24251 | 74.62222 | 29990 ft | 427 kts | 302° |
| 2026-04-22 14:03 | 17.26076 | 74.59785 | 29462 ft | 423 kts | 303° |
| 2026-04-22 14:03 | 17.27884 | 74.57372 | 28968 ft | 420 kts | 303° |
| 2026-04-22 14:04 | 17.29677 | 74.54981 | 28466 ft | 416 kts | 303° |
| 2026-04-22 14:04 | 17.31458 | 74.52601 | 27962 ft | 413 kts | 303° |
| 2026-04-22 14:04 | 17.33222 | 74.50237 | 27469 ft | 410 kts | 303° |
| 2026-04-22 14:04 | 17.34946 | 74.47923 | 27006 ft | 408 kts | 304° |
| 2026-04-22 14:05 | 17.36686 | 74.45591 | 26539 ft | 405 kts | 304° |
| 2026-04-22 14:05 | 17.38415 | 74.43273 | 26097 ft | 402 kts | 304° |
| 2026-04-22 14:05 | 17.41841 | 74.38683 | 25249 ft | 398 kts | 305° |
| 2026-04-22 14:06 | 17.43538 | 74.36406 | 24843 ft | 395 kts | 305° |
| 2026-04-22 14:06 | 17.45224 | 74.34146 | 24418 ft | 393 kts | 306° |
| 2026-04-22 14:06 | 17.46905 | 74.31892 | 24000 ft | 391 kts | 306° |
| 2026-04-22 14:06 | 17.48577 | 74.29649 | 23593 ft | 389 kts | 306° |
| 2026-04-22 14:07 | 17.50236 | 74.27424 | 23127 ft | 387 kts | 306° |
| 2026-04-22 14:07 | 17.51885 | 74.25212 | 22651 ft | 384 kts | 306° |
| 2026-04-22 14:07 | 17.53522 | 74.23016 | 22191 ft | 381 kts | 306° |
| 2026-04-22 14:07 | 17.55151 | 74.20828 | 21730 ft | 379 kts | 306° |
| 2026-04-22 14:08 | 17.56763 | 74.18662 | 21260 ft | 376 kts | 306° |
| 2026-04-22 14:08 | 17.58364 | 74.16507 | 20804 ft | 373 kts | 306° |
| 2026-04-22 14:08 | 17.59958 | 74.14360 | 20356 ft | 371 kts | 306° |
| 2026-04-22 14:08 | 17.61536 | 74.12236 | 19982 ft | 368 kts | 307° |
| 2026-04-22 14:09 | 17.63112 | 74.10117 | 19879 ft | 369 kts | 307° |
| 2026-04-22 14:09 | 17.64696 | 74.07986 | 19897 ft | 371 kts | 307° |
| 2026-04-22 14:09 | 17.66281 | 74.05854 | 19902 ft | 371 kts | 307° |
| 2026-04-22 14:09 | 17.67903 | 74.03674 | 19903 ft | 390 kts | 307° |
| 2026-04-22 14:10 | 17.69613 | 74.01371 | 19901 ft | 410 kts | 307° |
| 2026-04-22 14:10 | 17.70786 | 73.99787 | 19899 ft | 420 kts | 307° |
| 2026-04-22 14:10 | 17.73182 | 73.96548 | 19900 ft | 426 kts | 307° |
| 2026-04-22 14:10 | 17.75001 | 73.94096 | 19904 ft | 427 kts | 307° |
| 2026-04-22 14:11 | 17.76830 | 73.91637 | 19904 ft | 428 kts | 307° |
| 2026-04-22 14:11 | 17.78661 | 73.89173 | 19903 ft | 428 kts | 307° |
| 2026-04-22 14:11 | 17.80489 | 73.86711 | 19900 ft | 428 kts | 307° |
| 2026-04-22 14:11 | 17.81721 | 73.85048 | 19901 ft | 427 kts | 307° |
| 2026-04-22 14:12 | 17.84135 | 73.81787 | 19895 ft | 427 kts | 307° |
| 2026-04-22 14:12 | 17.85960 | 73.79321 | 19894 ft | 427 kts | 307° |
| 2026-04-22 14:12 | 17.87170 | 73.77687 | 19899 ft | 428 kts | 307° |
| 2026-04-22 14:12 | 17.89606 | 73.74390 | 19899 ft | 427 kts | 307° |
| 2026-04-22 14:13 | 17.90815 | 73.72753 | 19895 ft | 427 kts | 307° |
| 2026-04-22 14:13 | 17.92632 | 73.70290 | 19899 ft | 427 kts | 307° |
| 2026-04-22 14:13 | 17.94453 | 73.67820 | 19901 ft | 427 kts | 307° |
| 2026-04-22 14:13 | 17.96276 | 73.65354 | 19899 ft | 427 kts | 307° |
| 2026-04-22 14:14 | 17.98097 | 73.62890 | 19897 ft | 427 kts | 307° |
| 2026-04-22 14:14 | 17.99919 | 73.60427 | 19903 ft | 427 kts | 307° |
| 2026-04-22 14:14 | 18.01743 | 73.57960 | 19896 ft | 427 kts | 307° |
| 2026-04-22 14:14 | 18.03560 | 73.55492 | 19898 ft | 427 kts | 307° |
| 2026-04-22 14:15 | 18.05376 | 73.53024 | 19895 ft | 427 kts | 307° |
| 2026-04-22 14:15 | 18.07191 | 73.50560 | 19895 ft | 427 kts | 307° |
| 2026-04-22 14:15 | 18.09007 | 73.48094 | 19889 ft | 426 kts | 307° |
| 2026-04-22 14:15 | 18.10825 | 73.45624 | 19887 ft | 427 kts | 307° |
| 2026-04-22 14:16 | 18.12638 | 73.43159 | 19776 ft | 427 kts | 307° |
| 2026-04-22 14:16 | 18.14445 | 73.40717 | 19243 ft | 411 kts | 309° |
| 2026-04-22 14:16 | 18.16424 | 73.38706 | 19071 ft | 383 kts | 323° |
| 2026-04-22 14:16 | 18.18657 | 73.37359 | 18856 ft | 360 kts | 336° |
| 2026-04-22 14:17 | 18.20914 | 73.36340 | 18357 ft | 349 kts | 336° |
| 2026-04-22 14:17 | 18.23140 | 73.35342 | 17780 ft | 347 kts | 337° |
| 2026-04-22 14:17 | 18.25349 | 73.34354 | 17411 ft | 344 kts | 337° |
| 2026-04-22 14:17 | 18.27521 | 73.33383 | 17038 ft | 342 kts | 337° |
| 2026-04-22 14:18 | 18.29728 | 73.32398 | 16657 ft | 340 kts | 337° |
| 2026-04-22 14:18 | 18.31872 | 73.31442 | 16291 ft | 338 kts | 338° |
| 2026-04-22 14:18 | 18.34025 | 73.30481 | 15930 ft | 335 kts | 338° |
| 2026-04-22 14:18 | 18.36177 | 73.29548 | 15604 ft | 332 kts | 342° |
| 2026-04-22 14:19 | 18.38420 | 73.29154 | 15361 ft | 325 kts | 2° |
| 2026-04-22 14:19 | 18.40654 | 73.29423 | 15133 ft | 322 kts | 9° |
| 2026-04-22 14:19 | 18.42870 | 73.29773 | 14890 ft | 321 kts | 10° |
| 2026-04-22 14:19 | 18.45071 | 73.30128 | 14657 ft | 320 kts | 10° |
| 2026-04-22 14:20 | 18.49450 | 73.30836 | 14199 ft | 317 kts | 10° |
| 2026-04-22 14:20 | 18.51621 | 73.31185 | 13975 ft | 315 kts | 10° |
| 2026-04-22 14:20 | 18.53786 | 73.31533 | 13746 ft | 314 kts | 10° |
| 2026-04-22 14:21 | 18.58093 | 73.32223 | 13246 ft | 312 kts | 10° |
| 2026-04-22 14:21 | 18.60234 | 73.32566 | 12994 ft | 310 kts | 10° |
| 2026-04-22 14:22 | 18.64488 | 73.33253 | 12493 ft | 308 kts | 10° |
| 2026-04-22 14:22 | 18.66602 | 73.33591 | 12246 ft | 307 kts | 10° |
| 2026-04-22 14:22 | 18.70805 | 73.34268 | 11757 ft | 304 kts | 10° |
| 2026-04-22 14:23 | 18.72867 | 73.34601 | 11518 ft | 304 kts | 10° |
| 2026-04-22 14:23 | 18.74949 | 73.34937 | 11275 ft | 302 kts | 10° |
| 2026-04-22 14:23 | 18.77026 | 73.35272 | 11039 ft | 301 kts | 11° |
| 2026-04-22 14:23 | 18.79098 | 73.35607 | 10801 ft | 300 kts | 11° |
| 2026-04-22 14:24 | 18.81164 | 73.35942 | 10571 ft | 301 kts | 11° |
| 2026-04-22 14:24 | 18.83224 | 73.36276 | 10336 ft | 298 kts | 11° |
| 2026-04-22 14:24 | 18.85275 | 73.36605 | 10105 ft | 297 kts | 11° |
| 2026-04-22 14:24 | 18.87314 | 73.36930 | 9867 ft | 294 kts | 11° |
| 2026-04-22 14:25 | 18.89288 | 73.37245 | 9720 ft | 278 kts | 11° |
| 2026-04-22 14:25 | 18.91141 | 73.37539 | 9599 ft | 259 kts | 11° |
| 2026-04-22 14:25 | 18.92884 | 73.37817 | 9477 ft | 249 kts | 11° |
| 2026-04-22 14:25 | 18.94577 | 73.37842 | 9344 ft | 241 kts | 345° |
| 2026-04-22 14:26 | 18.95910 | 73.36905 | 9183 ft | 228 kts | 313° |
| 2026-04-22 14:26 | 18.96836 | 73.35568 | 8816 ft | 224 kts | 303° |
| 2026-04-22 14:26 | 18.97636 | 73.34133 | 8341 ft | 228 kts | 300° |
| 2026-04-22 14:26 | 18.98411 | 73.32671 | 7948 ft | 227 kts | 300° |
| 2026-04-22 14:27 | 18.99181 | 73.31235 | 7660 ft | 226 kts | 301° |
| 2026-04-22 14:27 | 18.99966 | 73.29804 | 7440 ft | 224 kts | 302° |
| 2026-04-22 14:27 | 19.00757 | 73.28391 | 7228 ft | 223 kts | 302° |
| 2026-04-22 14:27 | 19.01549 | 73.26994 | 6988 ft | 221 kts | 302° |
| 2026-04-22 14:28 | 19.02343 | 73.25608 | 6764 ft | 219 kts | 303° |
| 2026-04-22 14:28 | 19.03135 | 73.24231 | 6485 ft | 221 kts | 302° |
| 2026-04-22 14:28 | 19.03943 | 73.22829 | 6141 ft | 225 kts | 302° |
| 2026-04-22 14:28 | 19.04768 | 73.21400 | 5774 ft | 229 kts | 302° |
| 2026-04-22 14:29 | 19.05599 | 73.19963 | 5405 ft | 228 kts | 302° |
| 2026-04-22 14:29 | 19.06420 | 73.18546 | 5049 ft | 223 kts | 303° |
| 2026-04-22 14:29 | 19.07219 | 73.17168 | 4716 ft | 216 kts | 302° |
| 2026-04-22 14:29 | 19.07533 | 73.16624 | 4624 ft | 212 kts | 302° |
| 2026-04-22 14:30 | 19.08232 | 73.15426 | 4400 ft | 207 kts | 303° |
| 2026-04-22 14:30 | 19.08949 | 73.14115 | 4253 ft | 207 kts | 293° |
| 2026-04-22 14:30 | 19.09213 | 73.12647 | 4142 ft | 202 kts | 271° |
| 2026-04-22 14:30 | 19.09192 | 73.11165 | 4074 ft | 202 kts | 271° |
| 2026-04-22 14:31 | 19.09173 | 73.09692 | 3888 ft | 199 kts | 271° |
| 2026-04-22 14:31 | 19.09154 | 73.08257 | 3646 ft | 192 kts | 271° |
| 2026-04-22 14:31 | 19.09136 | 73.06866 | 3401 ft | 187 kts | 272° |
| 2026-04-22 14:31 | 19.09119 | 73.05511 | 3171 ft | 183 kts | 273° |
| 2026-04-22 14:32 | 19.09102 | 73.04182 | 2950 ft | 178 kts | 273° |
| 2026-04-22 14:32 | 19.09085 | 73.02883 | 2719 ft | 175 kts | 273° |
| 2026-04-22 14:32 | 19.09069 | 73.01621 | 2499 ft | 169 kts | 274° |
| 2026-04-22 14:32 | 19.09052 | 73.00399 | 2297 ft | 162 kts | 275° |
| 2026-04-22 14:33 | 19.09037 | 72.99242 | 2092 ft | 153 kts | 275° |
| 2026-04-22 14:33 | 19.09022 | 72.98161 | 1923 ft | 143 kts | 274° |
| 2026-04-22 14:33 | 19.09009 | 72.97139 | 1734 ft | 139 kts | 274° |
| 2026-04-22 14:33 | 19.08997 | 72.96128 | 1568 ft | 137 kts | 275° |
| 2026-04-22 14:34 | 19.08984 | 72.95126 | 1384 ft | 136 kts | 274° |
| 2026-04-22 14:34 | 19.08971 | 72.94124 | 1215 ft | 137 kts | 274° |
| 2026-04-22 14:34 | 19.08957 | 72.93122 | 1038 ft | 136 kts | 273° |
| 2026-04-22 14:34 | 19.08945 | 72.92125 | 876 ft | 136 kts | 271° |
| 2026-04-22 14:35 | 19.08930 | 72.91124 | 737 ft | 135 kts | 272° |
| 2026-04-22 14:35 | 19.08917 | 72.90136 | 576 ft | 134 kts | 271° |
| 2026-04-22 14:35 | 19.08903 | 72.89167 | 380 ft | 130 kts | 270° |
| 2026-04-22 14:35 | 19.08887 | 72.88199 | 183 ft | 133 kts | 270° |
| 2026-04-22 14:36 | 19.08877 | 72.87235 | 39 ft | 129 kts | 271° |
| 2026-04-22 14:36 | 19.08868 | 72.86461 | 30 ft | 82 kts | 268° |
| 2026-04-22 14:36 | 19.08862 | 72.86052 | 29 ft | 16 kts | 268° |
| 2026-04-22 14:36 | 19.08892 | 72.85950 | 30 ft | 16 kts | 296° |
| 2026-04-22 14:37 | 19.08947 | 72.85842 | 31 ft | 18 kts | 302° |
| 2026-04-22 14:37 | 19.09019 | 72.85736 | 31 ft | 12 kts | 333° |
| 2026-04-22 14:37 | 19.09104 | 72.85764 | 31 ft | 15 kts | 32° |
| 2026-04-22 14:37 | 19.09202 | 72.85824 | 33 ft | 15 kts | 29° |
| 2026-04-22 14:38 | 19.09234 | 72.85836 | 33 ft | 4 kts | 347° |
| 2026-04-22 14:38 | 19.09254 | 72.85807 | 33 ft | 2 kts | 301° |
| 2026-04-22 14:38 | 19.09258 | 72.85801 | 33 ft | 0 kts | 302° |
| 2026-04-22 14:44 | 19.09257 | 72.85801 | 33 ft | 0 kts | 302° |